createdAt,value
2022-08-25T00:01:35.196Z,8.10
2022-08-25T00:04:06.392Z,7.95
2022-08-25T00:06:33.140Z,9.70
2022-08-25T00:08:59.461Z,7.03
2022-08-25T00:11:29.891Z,12.15
2022-08-25T00:13:59.920Z,9.27
2022-08-25T00:16:26.918Z,12.07
2022-08-25T00:18:57.025Z,9.82
2022-08-25T00:21:24.133Z,7.68
2022-08-25T00:23:51.053Z,10.93
2022-08-25T00:26:17.886Z,10.95
2022-08-25T00:28:44.647Z,9.93
2022-08-25T00:31:15.788Z,11.77
2022-08-25T00:33:43.663Z,8.18
2022-08-25T00:36:10.300Z,7.63
2022-08-25T00:38:36.616Z,7.90
2022-08-25T00:41:03.948Z,7.13
2022-08-25T00:43:42.560Z,8.90
2022-08-25T00:46:10.340Z,8.60
2022-08-25T00:48:38.923Z,8.93
2022-08-25T00:51:09.553Z,11.32
2022-08-25T00:53:35.995Z,10.35
2022-08-25T00:56:02.595Z,9.55
2022-08-25T00:58:29.490Z,9.52
2022-08-25T01:00:56.794Z,14.15
2022-08-25T01:03:33.212Z,11.38
2022-08-25T01:06:03.802Z,13.23
2022-08-25T01:08:32.384Z,8.02
2022-08-25T01:11:02.518Z,8.45
2022-08-25T01:13:43.327Z,8.30
2022-08-25T01:16:10.285Z,9.45
2022-08-25T01:18:52.886Z,9.18
2022-08-25T01:21:21.300Z,10.00
2022-08-25T01:23:49.508Z,10.05
2022-08-25T01:26:21.252Z,11.77
2022-08-25T01:28:57.900Z,7.70
2022-08-25T01:31:24.551Z,11.98
2022-08-25T01:33:51.085Z,10.18
2022-08-25T01:36:22.605Z,7.85
2022-08-25T01:38:50.040Z,8.93
2022-08-25T01:41:25.610Z,9.75
2022-08-25T01:43:52.317Z,9.73
2022-08-25T01:46:18.764Z,10.50
2022-08-25T01:48:45.139Z,11.65
2022-08-25T01:51:11.503Z,11.00
2022-08-25T01:53:37.970Z,9.13
2022-08-25T01:56:12.824Z,8.60
2022-08-25T01:58:42.943Z,8.77
2022-08-25T02:01:17.257Z,17.40
2022-08-25T02:03:46.560Z,9.32
2022-08-25T02:06:18.946Z,9.25
2022-08-25T02:08:45.355Z,8.40
2022-08-25T02:11:14.271Z,10.60
2022-08-25T02:13:42.118Z,10.48
2022-08-25T02:16:14.554Z,9.20
2022-08-25T02:18:40.895Z,17.03
2022-08-25T02:21:07.266Z,9.68
2022-08-25T02:23:33.623Z,13.63
2022-08-25T02:25:59.924Z,9.75
2022-08-25T02:28:26.316Z,11.02
2022-08-25T02:30:52.983Z,9.50
2022-08-25T02:33:27.491Z,12.00
2022-08-25T02:35:57.677Z,11.10
2022-08-25T02:38:24.027Z,11.52
2022-08-25T02:40:50.448Z,14.10
2022-08-25T02:43:16.799Z,10.80
2022-08-25T02:45:43.140Z,11.60
2022-08-25T02:48:09.884Z,17.77
2022-08-25T02:50:36.210Z,16.33
2022-08-25T02:53:02.544Z,9.45
2022-08-25T02:55:29.263Z,11.30
2022-08-25T02:57:55.631Z,9.35
2022-08-25T03:00:22.084Z,11.07
2022-08-25T03:02:49.604Z,10.45
2022-08-25T03:05:16.585Z,13.00
2022-08-25T03:07:42.970Z,13.50
2022-08-25T03:10:14.831Z,13.13
2022-08-25T03:12:41.238Z,17.88
2022-08-25T03:15:13.264Z,12.93
2022-08-25T03:17:39.941Z,16.83
2022-08-25T03:20:07.834Z,15.80
2022-08-25T03:22:34.139Z,11.50
2022-08-25T03:25:01.751Z,11.20
2022-08-25T03:27:29.380Z,10.98
2022-08-25T03:29:55.740Z,12.73
2022-08-25T03:32:22.061Z,10.85
2022-08-25T03:34:48.360Z,10.80
2022-08-25T03:37:14.795Z,12.48
2022-08-25T03:39:41.154Z,12.15
2022-08-25T03:42:07.530Z,15.57
2022-08-25T03:44:33.928Z,18.20
2022-08-25T03:47:00.252Z,17.10
2022-08-25T03:49:26.564Z,11.02
2022-08-25T03:51:53.723Z,13.20
2022-08-25T03:54:23.648Z,15.35
2022-08-25T03:56:49.987Z,15.68
2022-08-25T03:59:18.042Z,12.40
2022-08-25T04:01:47.713Z,14.77
2022-08-25T04:04:16.640Z,13.98
2022-08-25T04:06:44.352Z,13.13
2022-08-25T04:09:11.461Z,12.93
2022-08-25T04:11:38.433Z,13.15
2022-08-25T04:14:04.887Z,12.73
2022-08-25T04:16:34.482Z,13.85
2022-08-25T04:19:02.683Z,12.45
2022-08-25T04:21:29.152Z,15.10
2022-08-25T04:23:56.315Z,16.73
2022-08-25T04:26:29.905Z,14.07
2022-08-25T04:28:57.502Z,15.25
2022-08-25T04:31:23.933Z,14.32
2022-08-25T04:33:50.636Z,14.30
2022-08-25T04:36:18.800Z,13.18
2022-08-25T04:38:46.570Z,13.82
2022-08-25T04:41:14.914Z,17.42
2022-08-25T04:43:42.482Z,16.42
2022-08-25T04:46:19.469Z,15.20
2022-08-25T04:48:48.192Z,14.85
2022-08-25T04:51:18.346Z,14.13
2022-08-25T04:53:44.790Z,15.55
2022-08-25T04:56:16.248Z,18.58
2022-08-25T04:58:42.796Z,17.42
2022-08-25T05:01:12.658Z,14.90
2022-08-25T05:03:39.163Z,16.23
2022-08-25T05:06:06.164Z,14.63
2022-08-25T05:08:35.215Z,19.48
2022-08-25T05:11:09.861Z,18.33
2022-08-25T05:13:36.836Z,16.30
2022-08-25T05:16:03.838Z,17.25
2022-08-25T05:18:32.519Z,17.63
2022-08-25T05:21:03.475Z,18.10
2022-08-25T05:23:30.000Z,19.10
2022-08-25T05:26:03.203Z,18.17
2022-08-25T05:28:29.673Z,18.33
2022-08-25T05:31:01.832Z,20.75
2022-08-25T05:33:30.578Z,18.17
2022-08-25T05:35:59.592Z,17.92
2022-08-25T05:38:26.396Z,18.10
2022-08-25T05:40:57.354Z,19.15
2022-08-25T05:43:23.707Z,18.58
2022-08-25T05:45:50.233Z,20.75
2022-08-25T05:48:16.579Z,21.95
2022-08-25T05:50:51.301Z,22.95
2022-08-25T05:53:17.618Z,20.05
2022-08-25T05:55:45.019Z,18.10
2022-08-25T05:58:11.339Z,18.33
2022-08-25T06:00:41.296Z,18.73
2022-08-25T06:03:07.707Z,17.33
2022-08-25T06:05:34.290Z,21.85
2022-08-25T06:08:00.634Z,16.75
2022-08-25T06:10:27.494Z,22.75
2022-08-25T06:12:54.000Z,20.00
2022-08-25T06:15:25.345Z,27.27
2022-08-25T06:17:52.459Z,18.92
2022-08-25T06:20:22.168Z,21.52
2022-08-25T06:22:52.213Z,26.35
2022-08-25T06:25:22.025Z,21.77
2022-08-25T06:27:49.114Z,20.63
2022-08-25T06:30:23.726Z,22.10
2022-08-25T06:32:50.954Z,21.70
2022-08-25T06:35:18.882Z,22.35
2022-08-25T06:37:46.084Z,21.83
2022-08-25T06:40:14.520Z,17.90
2022-08-25T06:42:41.188Z,21.35
2022-08-25T06:45:08.450Z,17.13
2022-08-25T06:47:34.985Z,21.65
2022-08-25T06:50:01.473Z,24.85
2022-08-25T06:52:27.917Z,20.33
2022-08-25T06:54:55.795Z,23.85
2022-08-25T06:57:22.137Z,18.95
2022-08-25T06:59:48.487Z,20.25
2022-08-25T07:02:22.309Z,22.30
2022-08-25T07:04:49.288Z,21.33
2022-08-25T07:07:15.602Z,20.48
2022-08-25T07:09:41.930Z,22.52
2022-08-25T07:12:08.452Z,18.33
2022-08-25T07:14:34.829Z,23.75
2022-08-25T07:17:03.066Z,23.23
2022-08-25T07:19:37.172Z,21.42
2022-08-25T07:22:03.534Z,21.35
2022-08-25T07:24:29.879Z,21.60
2022-08-25T07:26:56.223Z,19.15
2022-08-25T07:29:32.051Z,22.08
2022-08-25T07:32:00.645Z,28.63
2022-08-25T07:34:27.010Z,22.30
2022-08-25T07:36:56.168Z,22.65
2022-08-25T07:39:23.772Z,19.20
2022-08-25T07:41:51.987Z,21.70
2022-08-25T07:44:20.575Z,18.17
2022-08-25T07:46:46.991Z,23.48
2022-08-25T07:49:16.684Z,20.17
2022-08-25T07:52:05.050Z,22.52
2022-08-25T07:54:33.977Z,22.67
2022-08-25T07:57:04.710Z,21.67
2022-08-25T07:59:39.311Z,22.88
2022-08-25T08:02:18.362Z,18.45
2022-08-25T08:04:50.446Z,22.27
2022-08-25T08:07:41.919Z,17.42
2022-08-25T08:10:42.465Z,17.95
2022-08-25T08:12:58.624Z,21.75
2022-08-25T08:15:24.974Z,18.42
2022-08-25T08:17:54.768Z,17.73
2022-08-25T08:20:23.479Z,22.33
2022-08-25T08:22:50.279Z,18.98
2022-08-25T08:25:18.834Z,19.20
2022-08-25T08:27:49.343Z,19.55
2022-08-25T08:30:16.485Z,21.08
2022-08-25T08:33:08.103Z,18.95
2022-08-25T08:35:29.151Z,21.73
2022-08-25T08:37:55.583Z,18.67
2022-08-25T08:40:22.065Z,17.10
2022-08-25T08:43:18.504Z,21.52
2022-08-25T08:45:51.748Z,17.27
2022-08-25T08:48:35.925Z,20.27
2022-08-25T08:51:20.439Z,18.95
2022-08-25T08:54:04.235Z,19.50
2022-08-25T08:56:45.228Z,16.05
2022-08-25T08:59:30.276Z,14.90
2022-08-25T09:02:02.737Z,17.25
2022-08-25T09:04:59.053Z,18.08
2022-08-25T09:07:35.599Z,14.32
2022-08-25T09:10:02.309Z,14.45
2022-08-25T09:13:01.503Z,18.52
2022-08-25T09:15:54.644Z,20.27
2022-08-25T09:18:41.050Z,14.27
2022-08-25T09:21:19.879Z,15.05
2022-08-25T09:24:12.631Z,15.27
2022-08-25T09:27:03.782Z,15.70
2022-08-25T09:29:47.936Z,13.63
2022-08-25T09:32:16.828Z,15.30
2022-08-25T09:34:52.497Z,14.77
2022-08-25T09:37:18.839Z,17.13
2022-08-25T09:39:46.715Z,12.35
2022-08-25T09:42:13.697Z,12.57
2022-08-25T09:44:43.171Z,13.77
2022-08-25T09:47:18.631Z,16.27
2022-08-25T09:49:48.090Z,14.55
2022-08-25T09:52:37.427Z,12.80
2022-08-25T09:55:13.297Z,12.02
2022-08-25T09:57:47.608Z,15.05
2022-08-25T10:00:19.730Z,18.23
2022-08-25T10:03:06.038Z,17.60
2022-08-25T10:05:35.449Z,12.88
2022-08-25T10:08:11.084Z,11.52
2022-08-25T10:10:45.838Z,13.10
2022-08-25T10:13:22.961Z,13.25
2022-08-25T10:16:18.046Z,14.90
2022-08-25T10:19:00.986Z,12.07
2022-08-25T10:21:27.303Z,12.25
2022-08-25T10:23:54.296Z,18.05
2022-08-25T10:26:41.685Z,13.20
2022-08-25T10:29:30.618Z,15.82
2022-08-25T10:32:14.186Z,13.10
2022-08-25T10:34:55.754Z,16.27
2022-08-25T10:37:55.135Z,15.82
2022-08-25T10:40:32.198Z,12.18
2022-08-25T10:43:10.879Z,15.48
2022-08-25T10:45:47.081Z,12.45
2022-08-25T10:48:30.881Z,14.70
2022-08-25T10:51:09.662Z,14.63
2022-08-25T10:53:52.225Z,15.02
2022-08-25T10:56:27.452Z,17.48
2022-08-25T10:59:27.862Z,14.05
2022-08-25T11:02:42.163Z,13.35
2022-08-25T11:05:27.032Z,15.43
2022-08-25T11:08:23.707Z,12.00
2022-08-25T11:11:00.596Z,12.85
2022-08-25T11:13:41.377Z,14.68
2022-08-25T11:16:19.282Z,13.50
2022-08-25T11:18:55.409Z,13.45
2022-08-25T11:21:43.830Z,14.93
2022-08-25T11:24:36.605Z,12.50
2022-08-25T11:27:07.553Z,15.15
2022-08-25T11:29:37.747Z,15.45
2022-08-25T11:32:06.326Z,20.05
2022-08-25T11:34:36.128Z,14.55
2022-08-25T11:37:24.396Z,13.63
2022-08-25T11:39:59.917Z,14.07
2022-08-25T11:42:44.352Z,13.85
2022-08-25T11:45:47.467Z,13.35
2022-08-25T11:48:52.734Z,16.40
2022-08-25T11:51:36.516Z,15.32
2022-08-25T11:54:16.989Z,15.45
2022-08-25T11:56:53.028Z,12.82
2022-08-25T11:59:50.294Z,11.60
2022-08-25T12:02:43.697Z,15.23
2022-08-25T12:05:19.451Z,10.40
2022-08-25T12:08:05.849Z,9.75
2022-08-25T12:10:51.823Z,13.50
2022-08-25T12:13:38.689Z,13.52
2022-08-25T12:16:05.961Z,14.90
2022-08-25T12:18:32.217Z,11.43
2022-08-25T12:20:58.478Z,14.07
2022-08-25T12:23:35.198Z,13.10
2022-08-25T12:26:11.899Z,15.65
2022-08-25T12:28:47.670Z,10.93
2022-08-25T12:31:46.222Z,14.00
2022-08-25T12:34:30.925Z,14.43
2022-08-25T12:37:18.644Z,13.57
2022-08-25T12:39:54.502Z,11.30
2022-08-25T12:42:37.002Z,14.88
2022-08-25T12:45:16.067Z,9.40
2022-08-25T12:47:44.970Z,13.13
2022-08-25T12:50:35.223Z,15.57
2022-08-25T12:53:27.971Z,11.40
2022-08-25T12:56:04.914Z,11.02
2022-08-25T12:59:02.010Z,14.40
2022-08-25T13:02:06.998Z,11.15
2022-08-25T13:04:43.490Z,10.95
2022-08-25T13:07:24.465Z,10.30
2022-08-25T13:10:18.316Z,9.57
2022-08-25T13:12:58.308Z,13.65
2022-08-25T13:15:27.520Z,13.07
2022-08-25T13:17:53.846Z,12.88
2022-08-25T13:20:25.367Z,14.35
2022-08-25T13:22:57.884Z,15.45
2022-08-25T13:25:31.932Z,12.27
2022-08-25T13:28:02.789Z,15.30
2022-08-25T13:30:35.332Z,9.98
2022-08-25T13:33:23.075Z,13.30
2022-08-25T13:35:52.546Z,9.05
2022-08-25T13:38:19.501Z,12.52
2022-08-25T13:40:46.384Z,10.75
2022-08-25T13:43:15.037Z,13.52
2022-08-25T13:45:44.921Z,11.43
2022-08-25T13:48:22.673Z,10.63
2022-08-25T13:50:51.681Z,14.35
2022-08-25T13:53:24.738Z,9.82
2022-08-25T13:55:56.948Z,11.98
2022-08-25T13:58:44.817Z,11.77
2022-08-25T14:01:47.741Z,13.50
2022-08-25T14:04:29.900Z,13.10
2022-08-25T14:07:14.018Z,11.02
2022-08-25T14:09:51.350Z,8.52
2022-08-25T14:12:36.944Z,13.07
2022-08-25T14:15:27.292Z,15.40
2022-08-25T14:18:08.408Z,12.75
2022-08-25T14:20:37.099Z,11.98
2022-08-25T14:23:10.373Z,9.63
2022-08-25T14:25:37.265Z,11.40
2022-08-25T14:28:16.083Z,11.20
2022-08-25T14:30:47.084Z,10.30
2022-08-25T14:33:14.988Z,11.15
2022-08-25T14:35:44.385Z,8.82
2022-08-25T14:38:11.700Z,12.57
2022-08-25T14:40:39.149Z,9.27
2022-08-25T14:43:07.447Z,11.65
2022-08-25T14:45:39.231Z,8.68
2022-08-25T14:48:10.619Z,7.95
2022-08-25T14:50:38.374Z,11.80
2022-08-25T14:53:10.532Z,13.52
2022-08-25T14:55:36.970Z,11.65
2022-08-25T14:58:03.416Z,10.43
2022-08-25T15:00:37.050Z,9.05
2022-08-25T15:03:03.784Z,9.38
2022-08-25T15:05:30.123Z,8.95
2022-08-25T15:07:57.317Z,10.05
2022-08-25T15:10:23.649Z,12.20
2022-08-25T15:12:51.210Z,13.23
2022-08-25T15:15:21.253Z,11.15
2022-08-25T15:17:49.463Z,9.23
2022-08-25T15:20:17.186Z,11.90
2022-08-25T15:22:43.623Z,13.68
2022-08-25T15:25:10.286Z,17.27
2022-08-25T15:27:37.266Z,10.70
2022-08-25T15:30:05.401Z,9.35
2022-08-25T15:32:31.875Z,10.57
2022-08-25T15:34:58.228Z,13.13
2022-08-25T15:37:24.757Z,17.85
2022-08-25T15:39:51.921Z,12.60
2022-08-25T15:42:18.551Z,13.52
2022-08-25T15:44:53.376Z,10.10
2022-08-25T15:47:20.456Z,14.25
2022-08-25T15:49:47.152Z,10.38
2022-08-25T15:52:13.478Z,15.60
2022-08-25T15:54:39.882Z,9.05
2022-08-25T15:57:08.762Z,14.63
2022-08-25T15:59:35.888Z,9.35
2022-08-25T16:02:14.788Z,9.95
2022-08-25T16:04:41.698Z,12.07
2022-08-25T16:07:09.241Z,12.82
2022-08-25T16:09:40.475Z,12.50
2022-08-25T16:12:08.482Z,13.30
2022-08-25T16:14:35.700Z,15.48
2022-08-25T16:17:02.028Z,11.20
2022-08-25T16:19:28.899Z,13.20
2022-08-25T16:21:55.496Z,8.63
2022-08-25T16:24:21.821Z,10.20
2022-08-25T16:26:48.848Z,10.32
2022-08-25T16:29:15.585Z,10.75
2022-08-25T16:31:43.175Z,9.98
2022-08-25T16:34:09.602Z,13.70
2022-08-25T16:36:38.007Z,11.80
2022-08-25T16:39:04.878Z,13.55
2022-08-25T16:41:36.448Z,13.75
2022-08-25T16:44:04.837Z,12.80
2022-08-25T16:46:31.177Z,8.65
2022-08-25T16:49:01.652Z,9.75
2022-08-25T16:51:29.585Z,10.63
2022-08-25T16:53:57.093Z,10.95
2022-08-25T16:56:23.443Z,11.05
2022-08-25T16:58:53.467Z,10.82
2022-08-25T17:01:20.148Z,11.43
2022-08-25T17:03:46.684Z,12.35
2022-08-25T17:06:13.086Z,22.85
2022-08-25T17:08:40.556Z,19.35
2022-08-25T17:11:15.736Z,11.63
2022-08-25T17:13:45.694Z,11.57
2022-08-25T17:16:14.618Z,7.88
2022-08-25T17:18:42.194Z,13.95
2022-08-25T17:21:19.478Z,12.23
2022-08-25T17:23:51.328Z,13.02
2022-08-25T17:26:17.922Z,11.07
2022-08-25T17:28:44.228Z,10.30
2022-08-25T17:31:12.644Z,9.60
2022-08-25T17:33:39.042Z,12.38
2022-08-25T17:36:06.652Z,12.23
2022-08-25T17:38:33.986Z,9.82
2022-08-25T17:41:02.930Z,12.02
2022-08-25T17:43:33.618Z,9.15
2022-08-25T17:46:00.027Z,9.00
2022-08-25T17:48:27.877Z,9.38
2022-08-25T17:50:55.360Z,10.48
2022-08-25T17:53:21.813Z,16.10
2022-08-25T17:56:06.854Z,11.45
2022-08-25T17:58:33.471Z,12.90
2022-08-25T18:00:59.872Z,15.00
2022-08-25T18:03:27.297Z,14.10
2022-08-25T18:05:53.963Z,13.68
2022-08-25T18:08:20.371Z,12.60
2022-08-25T18:10:58.817Z,11.13
2022-08-25T18:13:25.141Z,11.05
2022-08-25T18:15:51.464Z,13.10
2022-08-25T18:18:17.993Z,10.80
2022-08-25T18:20:45.884Z,15.38
2022-08-25T18:23:13.370Z,13.23
2022-08-25T18:25:41.639Z,10.00
2022-08-25T18:28:08.920Z,13.30
2022-08-25T18:30:36.291Z,11.30
2022-08-25T18:33:02.699Z,9.45
2022-08-25T18:35:29.693Z,12.10
2022-08-25T18:37:56.062Z,11.23
2022-08-25T18:40:22.981Z,17.95
2022-08-25T18:42:54.323Z,12.95
2022-08-25T18:45:25.538Z,12.88
2022-08-25T18:47:53.365Z,16.48
2022-08-25T18:50:20.491Z,13.73
2022-08-25T18:52:46.832Z,10.88
2022-08-25T18:55:13.492Z,13.88
2022-08-25T18:57:41.734Z,11.48
2022-08-25T19:00:11.513Z,12.93
2022-08-25T19:02:38.015Z,15.07
2022-08-25T19:05:07.557Z,14.57
2022-08-25T19:07:36.874Z,14.68
2022-08-25T19:10:06.879Z,11.32
2022-08-25T19:12:33.661Z,16.50
2022-08-25T19:15:04.694Z,15.20
2022-08-25T19:17:37.530Z,13.02
2022-08-25T19:20:11.294Z,9.85
2022-08-25T19:22:42.068Z,15.27
2022-08-25T19:25:10.107Z,19.98
2022-08-25T19:27:36.806Z,13.90
2022-08-25T19:30:06.525Z,11.73
2022-08-25T19:32:33.129Z,16.23
2022-08-25T19:34:59.476Z,17.80
2022-08-25T19:37:28.419Z,15.18
2022-08-25T19:39:55.308Z,15.25
2022-08-25T19:42:37.224Z,11.65
2022-08-25T19:45:11.349Z,11.98
2022-08-25T19:50:05.929Z,13.07
2022-08-25T19:52:32.616Z,13.73
2022-08-25T19:54:58.946Z,10.23
2022-08-25T19:57:28.266Z,11.40
2022-08-25T20:02:36.749Z,14.35
2022-08-25T20:05:04.621Z,14.73
2022-08-25T20:07:32.683Z,9.45
2022-08-25T20:10:00.506Z,11.45
2022-08-25T20:12:28.544Z,12.82
2022-08-25T20:14:55.451Z,15.75
2022-08-25T20:17:24.670Z,14.70
2022-08-25T20:19:55.383Z,14.63
2022-08-25T20:22:26.104Z,18.75
2022-08-25T20:24:55.800Z,19.85
2022-08-25T20:27:27.976Z,13.65
2022-08-25T20:29:54.308Z,18.70
2022-08-25T20:32:20.683Z,12.63
2022-08-25T20:34:48.031Z,18.65
2022-08-25T20:37:14.726Z,11.85
2022-08-25T20:39:41.356Z,16.38
2022-08-25T20:42:08.207Z,17.05
2022-08-25T20:44:41.784Z,11.43
2022-08-25T20:47:10.503Z,15.32
2022-08-25T20:49:38.000Z,16.20
2022-08-25T20:52:05.117Z,10.98
2022-08-25T20:54:31.621Z,14.32
2022-08-25T20:56:58.879Z,15.55
2022-08-25T20:59:27.273Z,13.85
2022-08-25T21:01:55.244Z,12.13
2022-08-25T21:04:24.443Z,16.85
2022-08-25T21:06:50.847Z,13.63
2022-08-25T21:09:20.033Z,13.48
2022-08-25T21:11:47.688Z,12.13
2022-08-25T21:14:14.369Z,15.80
2022-08-25T21:16:42.784Z,12.85
2022-08-25T21:19:11.087Z,15.40
2022-08-25T21:21:38.582Z,17.85
2022-08-25T21:24:09.789Z,13.20
2022-08-25T21:26:37.709Z,13.20
2022-08-25T21:29:16.356Z,14.98
2022-08-25T21:31:42.774Z,18.88
2022-08-25T21:34:10.876Z,14.90
2022-08-25T21:36:39.285Z,15.18
2022-08-25T21:39:05.975Z,19.08
2022-08-25T21:41:33.961Z,15.23
2022-08-25T21:44:01.373Z,16.55
2022-08-25T21:46:30.399Z,16.25
2022-08-25T21:48:58.875Z,15.93
2022-08-25T21:51:29.571Z,18.17
2022-08-25T21:53:56.856Z,17.80
2022-08-25T21:56:23.172Z,17.33
2022-08-25T21:58:52.737Z,19.00
2022-08-25T22:01:20.179Z,18.65
2022-08-25T22:03:47.362Z,14.45
2022-08-25T22:06:14.892Z,12.38
2022-08-25T22:08:43.015Z,15.05
2022-08-25T22:11:10.414Z,13.88
2022-08-25T22:13:38.285Z,18.27
2022-08-25T22:16:07.680Z,13.93
2022-08-25T22:18:34.678Z,13.55
2022-08-25T22:21:01.186Z,11.07
2022-08-25T22:23:44.663Z,14.02
2022-08-25T22:26:12.700Z,14.55
2022-08-25T22:28:39.673Z,14.77
2022-08-25T22:31:10.544Z,17.27
2022-08-25T22:33:37.009Z,14.63
2022-08-25T22:36:23.228Z,14.98
2022-08-25T22:38:54.131Z,12.00
2022-08-25T22:41:21.922Z,15.15
2022-08-25T22:43:49.527Z,19.33
2022-08-25T22:46:19.206Z,14.32
2022-08-25T22:48:46.201Z,12.68
2022-08-25T22:51:15.530Z,14.63
2022-08-25T22:53:43.793Z,18.17
2022-08-25T22:56:12.091Z,16.30
2022-08-25T22:58:39.248Z,14.68
2022-08-25T23:01:17.448Z,19.80
2022-08-25T23:03:45.076Z,16.20
2022-08-25T23:06:25.044Z,13.93
2022-08-25T23:08:53.921Z,15.70
2022-08-25T23:11:21.845Z,18.90
2022-08-25T23:13:48.499Z,18.42
2022-08-25T23:16:15.592Z,15.05
2022-08-25T23:18:43.926Z,17.08
2022-08-25T23:21:11.398Z,15.68
2022-08-25T23:23:37.710Z,13.77
2022-08-25T23:26:04.461Z,15.50
2022-08-25T23:28:31.080Z,15.20
2022-08-25T23:30:59.271Z,12.10
2022-08-25T23:33:26.366Z,12.75
2022-08-25T23:36:00.923Z,16.00
2022-08-25T23:38:27.276Z,17.02
2022-08-25T23:40:54.614Z,16.77
2022-08-25T23:43:21.447Z,14.45
2022-08-25T23:45:48.174Z,14.27
2022-08-25T23:48:14.891Z,19.30
2022-08-25T23:50:47.204Z,13.32
2022-08-25T23:53:20.503Z,17.52
2022-08-25T23:55:53.015Z,12.52
2022-08-25T23:58:20.247Z,14.60
